KAXS/AXS METAR and TAF weather

Enter ICAO airport designator
Station Type Date Time Source
KAXS METAR 2018/04/26 15:15 UTC NOAA

KAXS 261515Z AUTO 00000KT 10SM CLR 15/08 A3004 RMK AO2 T01450077


Station Type Date Time Source
KAXS Decoded METAR 2018/04/26 15:15 UTC NOAA

Altus, Altus/Quartz Mountain Regional Airport, OK, United States (KAXS) 34-41-55N 099-20-17W
Apr 26, 2018 - 11:15 AM EDT / 2018.04.26 1515 UTC
Wind: Calm:0
Visibility: 10 mile(s):0
Sky conditions: clear
Temperature: 58.1 F (14.5 C)
Dew Point: 45.9 F (7.7 C)
Relative Humidity: 63%
Pressure (altimeter): 30.04 in. Hg (1017 hPa)
ob: KAXS 261515Z AUTO 00000KT 10SM CLR 15/08 A3004 RMK AO2 T01450077
cycle: 15

Station Type Date Time Source
KAXS TAF UTC NOAA

Error!


Example: see airport list